sensor_id;sensor_type;location;lat;lon;timestamp;temperature;humidity
1379;DHT22;683;48.738;9.226;2023-05-07T00:00:01;13.90;99.60
1379;DHT22;683;48.738;9.226;2023-05-07T00:02:31;13.90;99.10
1379;DHT22;683;48.738;9.226;2023-05-07T00:04:59;14.00;99.00
1379;DHT22;683;48.738;9.226;2023-05-07T00:07:26;13.90;98.70
1379;DHT22;683;48.738;9.226;2023-05-07T00:09:54;13.90;98.60
1379;DHT22;683;48.738;9.226;2023-05-07T00:12:22;14.00;98.60
1379;DHT22;683;48.738;9.226;2023-05-07T00:14:49;14.00;98.60
1379;DHT22;683;48.738;9.226;2023-05-07T00:17:18;13.90;98.40
1379;DHT22;683;48.738;9.226;2023-05-07T00:19:46;13.90;98.30
1379;DHT22;683;48.738;9.226;2023-05-07T00:22:14;13.90;98.20
1379;DHT22;683;48.738;9.226;2023-05-07T00:24:41;13.90;98.80
1379;DHT22;683;48.738;9.226;2023-05-07T00:27:09;13.80;98.80
1379;DHT22;683;48.738;9.226;2023-05-07T00:29:37;13.80;99.00
1379;DHT22;683;48.738;9.226;2023-05-07T00:32:05;13.80;98.90
1379;DHT22;683;48.738;9.226;2023-05-07T00:34:34;13.70;98.90
1379;DHT22;683;48.738;9.226;2023-05-07T00:37:02;13.70;99.40
1379;DHT22;683;48.738;9.226;2023-05-07T00:39:29;13.60;99.30
1379;DHT22;683;48.738;9.226;2023-05-07T00:41:57;13.60;99.60
1379;DHT22;683;48.738;9.226;2023-05-07T00:44:24;13.60;99.70
1379;DHT22;683;48.738;9.226;2023-05-07T00:46:52;13.50;99.90
1379;DHT22;683;48.738;9.226;2023-05-07T00:49:21;13.50;99.90
1379;DHT22;683;48.738;9.226;2023-05-07T00:51:50;13.50;99.90
1379;DHT22;683;48.738;9.226;2023-05-07T00:54:18;13.40;99.90
1379;DHT22;683;48.738;9.226;2023-05-07T00:56:46;13.40;99.90
1379;DHT22;683;48.738;9.226;2023-05-07T00:59:14;13.40;99.90
1379;DHT22;683;48.738;9.226;2023-05-07T01:01:42;13.30;99.90
1379;DHT22;683;48.738;9.226;2023-05-07T01:04:09;13.30;99.90
1379;DHT22;683;48.738;9.226;2023-05-07T01:06:37;13.30;99.90
1379;DHT22;683;48.738;9.226;2023-05-07T01:09:07;13.30;99.90
1379;DHT22;683;48.738;9.226;2023-05-07T01:11:35;13.20;99.90
1379;DHT22;683;48.738;9.226;2023-05-07T01:14:03;13.20;99.90
1379;DHT22;683;48.738;9.226;2023-05-07T01:16:31;13.20;99.90
1379;DHT22;683;48.738;9.226;2023-05-07T01:18:59;13.20;99.90
1379;DHT22;683;48.738;9.226;2023-05-07T01:21:32;13.20;99.90
1379;DHT22;683;48.738;9.226;2023-05-07T01:24:02;13.20;99.90
1379;DHT22;683;48.738;9.226;2023-05-07T01:26:31;13.10;99.90
1379;DHT22;683;48.738;9.226;2023-05-07T01:28:59;13.10;99.90
1379;DHT22;683;48.738;9.226;2023-05-07T01:31:27;13.10;99.90
1379;DHT22;683;48.738;9.226;2023-05-07T01:33:56;13.10;99.90
1379;DHT22;683;48.738;9.226;2023-05-07T01:36:26;13.00;99.90
1379;DHT22;683;48.738;9.226;2023-05-07T01:38:55;13.00;99.90
1379;DHT22;683;48.738;9.226;2023-05-07T01:41:25;13.00;99.90
1379;DHT22;683;48.738;9.226;2023-05-07T01:43:54;13.00;99.90
1379;DHT22;683;48.738;9.226;2023-05-07T01:46:22;13.00;99.90
1379;DHT22;683;48.738;9.226;2023-05-07T01:48:50;13.00;99.90
1379;DHT22;683;48.738;9.226;2023-05-07T01:51:18;13.00;99.90
1379;DHT22;683;48.738;9.226;2023-05-07T01:53:49;13.00;99.90
1379;DHT22;683;48.738;9.226;2023-05-07T01:56:18;13.00;99.90
1379;DHT22;683;48.738;9.226;2023-05-07T01:58:48;13.00;99.90
1379;DHT22;683;48.738;9.226;2023-05-07T02:01:17;13.00;99.90
1379;DHT22;683;48.738;9.226;2023-05-07T02:03:45;13.00;99.90
1379;DHT22;683;48.738;9.226;2023-05-07T02:06:20;13.00;99.90
1379;DHT22;683;48.738;9.226;2023-05-07T02:08:47;13.10;99.90
1379;DHT22;683;48.738;9.226;2023-05-07T02:11:16;13.00;99.90
1379;DHT22;683;48.738;9.226;2023-05-07T02:13:44;13.00;99.90
1379;DHT22;683;48.738;9.226;2023-05-07T02:16:13;13.00;99.90
1379;DHT22;683;48.738;9.226;2023-05-07T02:18:41;13.00;99.90
1379;DHT22;683;48.738;9.226;2023-05-07T02:21:08;13.00;99.90
1379;DHT22;683;48.738;9.226;2023-05-07T02:23:36;13.00;99.90
1379;DHT22;683;48.738;9.226;2023-05-07T02:26:04;13.00;99.90
1379;DHT22;683;48.738;9.226;2023-05-07T02:28:32;13.00;99.90
1379;DHT22;683;48.738;9.226;2023-05-07T02:31:03;13.00;99.90
1379;DHT22;683;48.738;9.226;2023-05-07T02:33:33;13.00;99.90
1379;DHT22;683;48.738;9.226;2023-05-07T02:36:06;12.90;99.90
1379;DHT22;683;48.738;9.226;2023-05-07T02:38:36;12.90;99.90
1379;DHT22;683;48.738;9.226;2023-05-07T02:41:04;12.80;99.90
1379;DHT22;683;48.738;9.226;2023-05-07T02:43:32;12.80;99.90
1379;DHT22;683;48.738;9.226;2023-05-07T02:46:03;12.70;99.90
1379;DHT22;683;48.738;9.226;2023-05-07T02:48:34;12.70;99.90
1379;DHT22;683;48.738;9.226;2023-05-07T02:51:03;12.60;99.90
1379;DHT22;683;48.738;9.226;2023-05-07T02:53:32;12.60;99.90
1379;DHT22;683;48.738;9.226;2023-05-07T02:56:02;12.50;99.90
1379;DHT22;683;48.738;9.226;2023-05-07T02:58:30;12.50;99.90
1379;DHT22;683;48.738;9.226;2023-05-07T03:00:59;12.50;99.90
1379;DHT22;683;48.738;9.226;2023-05-07T03:03:47;12.40;99.90
1379;DHT22;683;48.738;9.226;2023-05-07T03:06:14;12.30;99.90
1379;DHT22;683;48.738;9.226;2023-05-07T03:08:42;12.30;99.90
1379;DHT22;683;48.738;9.226;2023-05-07T03:11:10;12.20;99.90
1379;DHT22;683;48.738;9.226;2023-05-07T03:13:38;12.20;99.90
1379;DHT22;683;48.738;9.226;2023-05-07T03:16:06;12.10;99.90
1379;DHT22;683;48.738;9.226;2023-05-07T03:18:34;12.10;99.90
1379;DHT22;683;48.738;9.226;2023-05-07T03:21:03;12.10;99.90
1379;DHT22;683;48.738;9.226;2023-05-07T03:23:30;12.00;99.90
1379;DHT22;683;48.738;9.226;2023-05-07T03:25:58;12.00;99.90
1379;DHT22;683;48.738;9.226;2023-05-07T03:28:26;12.00;99.90
1379;DHT22;683;48.738;9.226;2023-05-07T03:30:59;12.00;99.90
1379;DHT22;683;48.738;9.226;2023-05-07T03:33:26;11.90;99.90
1379;DHT22;683;48.738;9.226;2023-05-07T03:35:55;11.90;99.90
1379;DHT22;683;48.738;9.226;2023-05-07T03:38:26;11.90;99.90
1379;DHT22;683;48.738;9.226;2023-05-07T03:40:54;11.90;99.90
1379;DHT22;683;48.738;9.226;2023-05-07T03:43:22;11.90;99.90
1379;DHT22;683;48.738;9.226;2023-05-07T03:45:57;11.90;99.90
1379;DHT22;683;48.738;9.226;2023-05-07T03:48:27;11.90;99.90
1379;DHT22;683;48.738;9.226;2023-05-07T03:50:57;11.90;99.90
1379;DHT22;683;48.738;9.226;2023-05-07T03:53:30;11.90;99.90
1379;DHT22;683;48.738;9.226;2023-05-07T03:55:58;11.90;99.90
1379;DHT22;683;48.738;9.226;2023-05-07T03:58:27;11.90;99.90
1379;DHT22;683;48.738;9.226;2023-05-07T04:00:57;11.90;99.90
1379;DHT22;683;48.738;9.226;2023-05-07T04:03:29;11.80;99.90
1379;DHT22;683;48.738;9.226;2023-05-07T04:05:59;11.80;99.90
1379;DHT22;683;48.738;9.226;2023-05-07T04:08:26;11.80;99.90
1379;DHT22;683;48.738;9.226;2023-05-07T04:10:56;11.80;99.90
1379;DHT22;683;48.738;9.226;2023-05-07T04:13:27;11.80;99.90
1379;DHT22;683;48.738;9.226;2023-05-07T04:15:56;11.70;99.90
1379;DHT22;683;48.738;9.226;2023-05-07T04:18:24;11.80;99.90
1379;DHT22;683;48.738;9.226;2023-05-07T04:20:52;11.70;99.90
1379;DHT22;683;48.738;9.226;2023-05-07T04:23:20;11.70;99.90
1379;DHT22;683;48.738;9.226;2023-05-07T04:25:48;11.80;99.90
1379;DHT22;683;48.738;9.226;2023-05-07T04:28:23;11.70;99.90
1379;DHT22;683;48.738;9.226;2023-05-07T04:30:51;11.70;99.90
1379;DHT22;683;48.738;9.226;2023-05-07T04:33:20;11.80;99.90
1379;DHT22;683;48.738;9.226;2023-05-07T04:35:49;11.80;99.90
1379;DHT22;683;48.738;9.226;2023-05-07T04:38:17;11.80;99.90
1379;DHT22;683;48.738;9.226;2023-05-07T04:40:47;11.90;99.90
1379;DHT22;683;48.738;9.226;2023-05-07T04:43:19;11.90;99.90
1379;DHT22;683;48.738;9.226;2023-05-07T04:45:51;11.90;99.90
1379;DHT22;683;48.738;9.226;2023-05-07T04:48:21;12.00;99.90
1379;DHT22;683;48.738;9.226;2023-05-07T04:50:51;12.00;99.90
1379;DHT22;683;48.738;9.226;2023-05-07T04:53:20;12.00;99.90
1379;DHT22;683;48.738;9.226;2023-05-07T04:55:55;12.00;99.90
1379;DHT22;683;48.738;9.226;2023-05-07T04:58:25;12.00;99.90
1379;DHT22;683;48.738;9.226;2023-05-07T05:00:54;12.00;99.90
1379;DHT22;683;48.738;9.226;2023-05-07T05:03:22;12.00;99.90
1379;DHT22;683;48.738;9.226;2023-05-07T05:05:51;11.90;99.90
1379;DHT22;683;48.738;9.226;2023-05-07T05:08:20;12.00;99.90
1379;DHT22;683;48.738;9.226;2023-05-07T05:10:48;12.00;99.90
1379;DHT22;683;48.738;9.226;2023-05-07T05:13:16;12.00;99.90
1379;DHT22;683;48.738;9.226;2023-05-07T05:15:43;12.10;99.90
1379;DHT22;683;48.738;9.226;2023-05-07T05:18:13;12.10;99.90
1379;DHT22;683;48.738;9.226;2023-05-07T05:20:41;12.10;99.90
1379;DHT22;683;48.738;9.226;2023-05-07T05:23:08;12.10;99.90
1379;DHT22;683;48.738;9.226;2023-05-07T05:25:37;12.20;99.90
1379;DHT22;683;48.738;9.226;2023-05-07T05:28:05;12.30;99.90
1379;DHT22;683;48.738;9.226;2023-05-07T05:30:34;12.40;99.90
1379;DHT22;683;48.738;9.226;2023-05-07T05:33:02;12.60;99.90
1379;DHT22;683;48.738;9.226;2023-05-07T05:35:31;12.80;99.90
1379;DHT22;683;48.738;9.226;2023-05-07T05:38:03;13.10;99.90
1379;DHT22;683;48.738;9.226;2023-05-07T05:40:30;13.20;99.90
1379;DHT22;683;48.738;9.226;2023-05-07T05:43:00;13.40;99.90
1379;DHT22;683;48.738;9.226;2023-05-07T05:45:28;13.70;99.90
1379;DHT22;683;48.738;9.226;2023-05-07T05:47:56;13.90;99.90
1379;DHT22;683;48.738;9.226;2023-05-07T05:50:24;14.10;99.90
1379;DHT22;683;48.738;9.226;2023-05-07T05:52:54;14.40;99.90
1379;DHT22;683;48.738;9.226;2023-05-07T05:55:23;14.70;99.90
1379;DHT22;683;48.738;9.226;2023-05-07T05:57:51;15.00;99.90
1379;DHT22;683;48.738;9.226;2023-05-07T06:00:19;15.50;99.90
1379;DHT22;683;48.738;9.226;2023-05-07T06:02:55;16.00;99.90
1379;DHT22;683;48.738;9.226;2023-05-07T06:05:24;16.40;99.90
1379;DHT22;683;48.738;9.226;2023-05-07T06:07:56;16.70;99.90
1379;DHT22;683;48.738;9.226;2023-05-07T06:10:25;16.60;99.50
1379;DHT22;683;48.738;9.226;2023-05-07T06:12:54;16.60;99.40
1379;DHT22;683;48.738;9.226;2023-05-07T06:15:22;16.70;98.90
1379;DHT22;683;48.738;9.226;2023-05-07T06:17:50;16.60;98.70
1379;DHT22;683;48.738;9.226;2023-05-07T06:20:18;16.80;98.00
1379;DHT22;683;48.738;9.226;2023-05-07T06:22:46;16.80;97.70
1379;DHT22;683;48.738;9.226;2023-05-07T06:25:16;16.80;97.40
1379;DHT22;683;48.738;9.226;2023-05-07T06:27:44;16.80;97.30
1379;DHT22;683;48.738;9.226;2023-05-07T06:30:12;16.80;96.80
1379;DHT22;683;48.738;9.226;2023-05-07T06:32:40;16.80;96.70
1379;DHT22;683;48.738;9.226;2023-05-07T06:35:09;16.80;96.70
1379;DHT22;683;48.738;9.226;2023-05-07T06:37:38;16.70;96.90
1379;DHT22;683;48.738;9.226;2023-05-07T06:40:12;16.60;97.00
1379;DHT22;683;48.738;9.226;2023-05-07T06:42:43;16.50;97.00
1379;DHT22;683;48.738;9.226;2023-05-07T06:45:33;16.40;97.50
1379;DHT22;683;48.738;9.226;2023-05-07T06:48:01;16.30;98.00
1379;DHT22;683;48.738;9.226;2023-05-07T06:50:32;16.20;98.10
1379;DHT22;683;48.738;9.226;2023-05-07T06:53:01;16.00;98.40
1379;DHT22;683;48.738;9.226;2023-05-07T06:55:29;15.90;98.80
1379;DHT22;683;48.738;9.226;2023-05-07T06:57:58;15.90;99.50
1379;DHT22;683;48.738;9.226;2023-05-07T07:00:28;16.10;99.30
1379;DHT22;683;48.738;9.226;2023-05-07T07:02:56;16.20;99.20
1379;DHT22;683;48.738;9.226;2023-05-07T07:05:27;16.40;99.10
1379;DHT22;683;48.738;9.226;2023-05-07T07:07:56;16.50;99.00
1379;DHT22;683;48.738;9.226;2023-05-07T07:10:24;16.60;98.60
1379;DHT22;683;48.738;9.226;2023-05-07T07:12:53;16.80;98.40
1379;DHT22;683;48.738;9.226;2023-05-07T07:15:23;17.00;98.10
1379;DHT22;683;48.738;9.226;2023-05-07T07:17:51;17.10;97.90
1379;DHT22;683;48.738;9.226;2023-05-07T07:20:20;17.30;97.80
1379;DHT22;683;48.738;9.226;2023-05-07T07:22:48;17.50;97.10
1379;DHT22;683;48.738;9.226;2023-05-07T07:25:17;17.80;97.20
1379;DHT22;683;48.738;9.226;2023-05-07T07:27:45;17.90;96.50
1379;DHT22;683;48.738;9.226;2023-05-07T07:30:14;18.20;96.20
1379;DHT22;683;48.738;9.226;2023-05-07T07:32:47;18.20;95.90
1379;DHT22;683;48.738;9.226;2023-05-07T07:35:15;18.40;95.70
1379;DHT22;683;48.738;9.226;2023-05-07T07:37:44;18.60;95.50
1379;DHT22;683;48.738;9.226;2023-05-07T07:40:14;18.80;95.10
1379;DHT22;683;48.738;9.226;2023-05-07T07:42:42;19.00;94.70
1379;DHT22;683;48.738;9.226;2023-05-07T07:45:11;19.20;94.00
1379;DHT22;683;48.738;9.226;2023-05-07T07:47:43;19.50;93.30
1379;DHT22;683;48.738;9.226;2023-05-07T07:50:12;19.60;92.50
1379;DHT22;683;48.738;9.226;2023-05-07T07:52:40;19.70;92.50
1379;DHT22;683;48.738;9.226;2023-05-07T07:55:09;19.90;92.60
1379;DHT22;683;48.738;9.226;2023-05-07T07:57:39;20.20;91.50
1379;DHT22;683;48.738;9.226;2023-05-07T08:00:08;20.40;90.50
1379;DHT22;683;48.738;9.226;2023-05-07T08:02:42;20.60;90.10
1379;DHT22;683;48.738;9.226;2023-05-07T08:05:17;20.60;89.90
1379;DHT22;683;48.738;9.226;2023-05-07T08:07:47;20.80;89.20
1379;DHT22;683;48.738;9.226;2023-05-07T08:10:21;21.00;89.20
1379;DHT22;683;48.738;9.226;2023-05-07T08:12:54;21.20;87.30
1379;DHT22;683;48.738;9.226;2023-05-07T08:15:21;21.30;87.80
1379;DHT22;683;48.738;9.226;2023-05-07T08:17:50;21.50;85.10
1379;DHT22;683;48.738;9.226;2023-05-07T08:20:20;21.50;86.40
1379;DHT22;683;48.738;9.226;2023-05-07T08:22:48;21.60;84.30
1379;DHT22;683;48.738;9.226;2023-05-07T08:25:15;21.50;83.60
1379;DHT22;683;48.738;9.226;2023-05-07T08:27:43;21.60;83.80
1379;DHT22;683;48.738;9.226;2023-05-07T08:30:13;21.60;84.00
1379;DHT22;683;48.738;9.226;2023-05-07T08:32:41;21.50;83.60
1379;DHT22;683;48.738;9.226;2023-05-07T08:35:09;21.30;83.20
1379;DHT22;683;48.738;9.226;2023-05-07T08:37:38;21.20;84.60
1379;DHT22;683;48.738;9.226;2023-05-07T08:40:07;21.10;84.90
1379;DHT22;683;48.738;9.226;2023-05-07T08:42:36;21.10;85.40
1379;DHT22;683;48.738;9.226;2023-05-07T08:45:07;21.20;85.50
1379;DHT22;683;48.738;9.226;2023-05-07T08:47:43;21.20;85.20
1379;DHT22;683;48.738;9.226;2023-05-07T08:50:12;21.10;85.10
1379;DHT22;683;48.738;9.226;2023-05-07T08:52:42;21.20;86.00
1379;DHT22;683;48.738;9.226;2023-05-07T08:55:10;21.20;85.90
1379;DHT22;683;48.738;9.226;2023-05-07T08:57:38;21.20;85.10
1379;DHT22;683;48.738;9.226;2023-05-07T09:00:07;21.30;86.30
1379;DHT22;683;48.738;9.226;2023-05-07T09:02:37;21.40;86.30
1379;DHT22;683;48.738;9.226;2023-05-07T09:05:07;21.40;86.40
1379;DHT22;683;48.738;9.226;2023-05-07T09:07:36;21.40;85.50
1379;DHT22;683;48.738;9.226;2023-05-07T09:10:09;21.50;83.90
1379;DHT22;683;48.738;9.226;2023-05-07T09:12:39;21.60;84.00
1379;DHT22;683;48.738;9.226;2023-05-07T09:15:10;21.40;84.70
1379;DHT22;683;48.738;9.226;2023-05-07T09:17:39;21.60;83.40
1379;DHT22;683;48.738;9.226;2023-05-07T09:20:09;21.60;84.10
1379;DHT22;683;48.738;9.226;2023-05-07T09:22:38;21.70;84.10
1379;DHT22;683;48.738;9.226;2023-05-07T09:25:11;21.80;83.40
1379;DHT22;683;48.738;9.226;2023-05-07T09:27:40;21.90;84.30
1379;DHT22;683;48.738;9.226;2023-05-07T09:30:09;22.00;83.00
1379;DHT22;683;48.738;9.226;2023-05-07T09:32:38;22.10;82.70
1379;DHT22;683;48.738;9.226;2023-05-07T09:35:14;22.10;81.90
1379;DHT22;683;48.738;9.226;2023-05-07T09:37:43;22.00;82.30
1379;DHT22;683;48.738;9.226;2023-05-07T09:40:22;22.10;81.90
1379;DHT22;683;48.738;9.226;2023-05-07T09:42:51;22.30;81.80
1379;DHT22;683;48.738;9.226;2023-05-07T09:45:24;22.30;82.00
1379;DHT22;683;48.738;9.226;2023-05-07T09:47:54;22.20;82.10
1379;DHT22;683;48.738;9.226;2023-05-07T09:50:26;22.20;82.20
1379;DHT22;683;48.738;9.226;2023-05-07T09:52:56;22.10;81.00
1379;DHT22;683;48.738;9.226;2023-05-07T09:55:27;22.00;82.10
1379;DHT22;683;48.738;9.226;2023-05-07T09:57:55;22.20;82.30
1379;DHT22;683;48.738;9.226;2023-05-07T10:00:28;22.40;79.80
1379;DHT22;683;48.738;9.226;2023-05-07T10:03:05;22.50;81.40
1379;DHT22;683;48.738;9.226;2023-05-07T10:05:53;22.50;81.00
1379;DHT22;683;48.738;9.226;2023-05-07T10:08:22;22.70;80.70
1379;DHT22;683;48.738;9.226;2023-05-07T10:10:55;22.80;82.20
1379;DHT22;683;48.738;9.226;2023-05-07T10:13:26;22.90;79.80
1379;DHT22;683;48.738;9.226;2023-05-07T10:15:57;22.80;76.90
1379;DHT22;683;48.738;9.226;2023-05-07T10:18:30;22.80;78.20
1379;DHT22;683;48.738;9.226;2023-05-07T10:21:07;22.80;79.20
1379;DHT22;683;48.738;9.226;2023-05-07T10:23:36;23.00;78.70
1379;DHT22;683;48.738;9.226;2023-05-07T10:26:07;23.30;80.70
1379;DHT22;683;48.738;9.226;2023-05-07T10:28:39;23.50;78.50
1379;DHT22;683;48.738;9.226;2023-05-07T10:31:23;23.80;75.70
1379;DHT22;683;48.738;9.226;2023-05-07T10:33:58;24.00;76.40
1379;DHT22;683;48.738;9.226;2023-05-07T10:36:26;24.30;74.60
1379;DHT22;683;48.738;9.226;2023-05-07T10:38:55;24.50;73.90
1379;DHT22;683;48.738;9.226;2023-05-07T10:41:25;24.50;74.90
1379;DHT22;683;48.738;9.226;2023-05-07T10:43:53;24.70;74.70
1379;DHT22;683;48.738;9.226;2023-05-07T10:46:29;24.90;74.40
1379;DHT22;683;48.738;9.226;2023-05-07T10:49:20;25.10;71.50
1379;DHT22;683;48.738;9.226;2023-05-07T10:52:12;25.20;69.10
1379;DHT22;683;48.738;9.226;2023-05-07T10:54:42;25.60;69.10
1379;DHT22;683;48.738;9.226;2023-05-07T10:57:36;25.60;69.30
1379;DHT22;683;48.738;9.226;2023-05-07T11:00:41;25.80;66.90
1379;DHT22;683;48.738;9.226;2023-05-07T11:03:13;26.10;65.80
1379;DHT22;683;48.738;9.226;2023-05-07T11:06:10;26.00;66.40
1379;DHT22;683;48.738;9.226;2023-05-07T11:08:55;26.20;65.90
1379;DHT22;683;48.738;9.226;2023-05-07T11:11:47;26.30;64.20
1379;DHT22;683;48.738;9.226;2023-05-07T11:14:45;26.20;62.40
1379;DHT22;683;48.738;9.226;2023-05-07T11:17:24;26.20;61.40
1379;DHT22;683;48.738;9.226;2023-05-07T11:20:01;26.20;62.30
1379;DHT22;683;48.738;9.226;2023-05-07T11:22:50;26.40;60.70
1379;DHT22;683;48.738;9.226;2023-05-07T11:25:34;26.60;60.10
1379;DHT22;683;48.738;9.226;2023-05-07T11:28:10;26.80;60.30
1379;DHT22;683;48.738;9.226;2023-05-07T11:30:45;27.00;59.60
1379;DHT22;683;48.738;9.226;2023-05-07T11:33:17;27.40;58.00
1379;DHT22;683;48.738;9.226;2023-05-07T11:35:47;27.80;57.80
1379;DHT22;683;48.738;9.226;2023-05-07T11:38:18;27.80;57.40
1379;DHT22;683;48.738;9.226;2023-05-07T11:40:50;27.70;57.00
1379;DHT22;683;48.738;9.226;2023-05-07T11:43:18;27.30;56.30
1379;DHT22;683;48.738;9.226;2023-05-07T11:45:48;27.40;57.30
1379;DHT22;683;48.738;9.226;2023-05-07T11:48:16;27.30;58.40
1379;DHT22;683;48.738;9.226;2023-05-07T11:50:51;27.30;57.50
1379;DHT22;683;48.738;9.226;2023-05-07T11:53:19;27.10;58.20
1379;DHT22;683;48.738;9.226;2023-05-07T11:55:47;27.00;58.20
1379;DHT22;683;48.738;9.226;2023-05-07T11:58:21;26.90;58.20
1379;DHT22;683;48.738;9.226;2023-05-07T12:00:51;26.60;58.60
1379;DHT22;683;48.738;9.226;2023-05-07T12:03:18;26.50;57.50
1379;DHT22;683;48.738;9.226;2023-05-07T12:05:47;26.20;58.10
1379;DHT22;683;48.738;9.226;2023-05-07T12:08:15;26.10;58.80
1379;DHT22;683;48.738;9.226;2023-05-07T12:10:43;25.80;59.40
1379;DHT22;683;48.738;9.226;2023-05-07T12:13:15;25.60;59.70
1379;DHT22;683;48.738;9.226;2023-05-07T12:15:43;25.40;60.50
1379;DHT22;683;48.738;9.226;2023-05-07T12:18:12;25.30;59.60
1379;DHT22;683;48.738;9.226;2023-05-07T12:20:40;25.10;61.20
1379;DHT22;683;48.738;9.226;2023-05-07T12:23:08;24.70;61.60
1379;DHT22;683;48.738;9.226;2023-05-07T12:25:37;24.40;62.70
1379;DHT22;683;48.738;9.226;2023-05-07T12:28:05;24.10;63.60
1379;DHT22;683;48.738;9.226;2023-05-07T12:30:36;23.90;64.50
1379;DHT22;683;48.738;9.226;2023-05-07T12:33:04;23.60;65.90
1379;DHT22;683;48.738;9.226;2023-05-07T12:35:42;23.40;66.30
1379;DHT22;683;48.738;9.226;2023-05-07T12:38:11;23.00;66.40
1379;DHT22;683;48.738;9.226;2023-05-07T12:40:41;22.50;66.00
1379;DHT22;683;48.738;9.226;2023-05-07T12:43:15;22.10;67.60
1379;DHT22;683;48.738;9.226;2023-05-07T12:45:44;21.70;70.00
1379;DHT22;683;48.738;9.226;2023-05-07T12:48:13;21.30;72.00
1379;DHT22;683;48.738;9.226;2023-05-07T12:50:42;21.00;75.70
1379;DHT22;683;48.738;9.226;2023-05-07T12:53:11;20.70;78.10
1379;DHT22;683;48.738;9.226;2023-05-07T12:55:43;20.20;72.10
1379;DHT22;683;48.738;9.226;2023-05-07T12:58:19;19.90;72.40
1379;DHT22;683;48.738;9.226;2023-05-07T13:00:48;19.70;74.90
1379;DHT22;683;48.738;9.226;2023-05-07T13:03:25;19.50;76.30
1379;DHT22;683;48.738;9.226;2023-05-07T13:06:00;19.30;74.60
1379;DHT22;683;48.738;9.226;2023-05-07T13:08:29;19.10;77.20
1379;DHT22;683;48.738;9.226;2023-05-07T13:10:59;18.80;94.60
1379;DHT22;683;48.738;9.226;2023-05-07T13:13:29;18.20;95.90
1379;DHT22;683;48.738;9.226;2023-05-07T13:15:57;17.40;96.50
1379;DHT22;683;48.738;9.226;2023-05-07T13:18:25;16.70;99.90
1379;DHT22;683;48.738;9.226;2023-05-07T13:20:53;16.00;99.90
1379;DHT22;683;48.738;9.226;2023-05-07T13:23:22;15.50;99.90
1379;DHT22;683;48.738;9.226;2023-05-07T13:25:51;15.20;99.90
1379;DHT22;683;48.738;9.226;2023-05-07T13:28:20;14.90;99.90
1379;DHT22;683;48.738;9.226;2023-05-07T13:30:48;14.80;99.90
1379;DHT22;683;48.738;9.226;2023-05-07T13:33:15;14.60;99.90
1379;DHT22;683;48.738;9.226;2023-05-07T13:35:43;14.60;99.90
1379;DHT22;683;48.738;9.226;2023-05-07T13:38:11;14.50;99.90
1379;DHT22;683;48.738;9.226;2023-05-07T13:40:40;14.50;99.90
1379;DHT22;683;48.738;9.226;2023-05-07T13:43:08;14.40;99.90
1379;DHT22;683;48.738;9.226;2023-05-07T13:45:36;14.40;99.90
1379;DHT22;683;48.738;9.226;2023-05-07T13:48:04;14.40;99.90
1379;DHT22;683;48.738;9.226;2023-05-07T13:50:32;14.40;99.90
1379;DHT22;683;48.738;9.226;2023-05-07T13:53:00;14.50;99.90
1379;DHT22;683;48.738;9.226;2023-05-07T13:55:29;14.50;99.90
1379;DHT22;683;48.738;9.226;2023-05-07T13:57:59;14.60;99.90
1379;DHT22;683;48.738;9.226;2023-05-07T14:00:28;14.60;99.90
1379;DHT22;683;48.738;9.226;2023-05-07T14:02:56;14.50;99.90
1379;DHT22;683;48.738;9.226;2023-05-07T14:05:24;14.50;99.90
1379;DHT22;683;48.738;9.226;2023-05-07T14:07:54;14.40;99.90
1379;DHT22;683;48.738;9.226;2023-05-07T14:10:22;14.30;99.90
1379;DHT22;683;48.738;9.226;2023-05-07T14:12:50;14.30;99.90
1379;DHT22;683;48.738;9.226;2023-05-07T14:15:20;14.20;99.90
1379;DHT22;683;48.738;9.226;2023-05-07T14:17:47;14.20;99.90
1379;DHT22;683;48.738;9.226;2023-05-07T14:20:15;14.10;99.90
1379;DHT22;683;48.738;9.226;2023-05-07T14:22:43;14.10;99.90
1379;DHT22;683;48.738;9.226;2023-05-07T14:25:11;14.20;99.90
1379;DHT22;683;48.738;9.226;2023-05-07T14:27:39;14.20;99.90
1379;DHT22;683;48.738;9.226;2023-05-07T14:30:07;14.20;99.90
1379;DHT22;683;48.738;9.226;2023-05-07T14:32:36;14.20;99.90
1379;DHT22;683;48.738;9.226;2023-05-07T14:35:05;14.10;99.90
1379;DHT22;683;48.738;9.226;2023-05-07T14:37:32;14.10;99.90
1379;DHT22;683;48.738;9.226;2023-05-07T14:40:00;14.00;99.90
1379;DHT22;683;48.738;9.226;2023-05-07T14:42:28;14.10;99.90
1379;DHT22;683;48.738;9.226;2023-05-07T14:44:56;14.10;99.90
1379;DHT22;683;48.738;9.226;2023-05-07T14:47:24;14.10;99.90
1379;DHT22;683;48.738;9.226;2023-05-07T14:49:53;14.20;99.90
1379;DHT22;683;48.738;9.226;2023-05-07T14:52:21;14.30;99.90
1379;DHT22;683;48.738;9.226;2023-05-07T14:54:49;14.30;99.90
1379;DHT22;683;48.738;9.226;2023-05-07T14:57:17;14.40;99.90
1379;DHT22;683;48.738;9.226;2023-05-07T14:59:45;14.50;99.90
1379;DHT22;683;48.738;9.226;2023-05-07T15:02:13;14.60;99.90
1379;DHT22;683;48.738;9.226;2023-05-07T15:04:41;14.60;99.90
1379;DHT22;683;48.738;9.226;2023-05-07T15:07:13;14.70;99.90
1379;DHT22;683;48.738;9.226;2023-05-07T15:09:43;14.70;99.90
1379;DHT22;683;48.738;9.226;2023-05-07T15:12:10;14.80;99.90
1379;DHT22;683;48.738;9.226;2023-05-07T15:14:39;14.80;99.90
1379;DHT22;683;48.738;9.226;2023-05-07T15:17:06;14.90;99.90
1379;DHT22;683;48.738;9.226;2023-05-07T15:19:34;14.90;99.90
1379;DHT22;683;48.738;9.226;2023-05-07T15:22:02;15.00;99.90
1379;DHT22;683;48.738;9.226;2023-05-07T15:24:31;15.00;99.90
1379;DHT22;683;48.738;9.226;2023-05-07T15:26:59;15.10;99.90
1379;DHT22;683;48.738;9.226;2023-05-07T15:29:27;15.20;99.90
1379;DHT22;683;48.738;9.226;2023-05-07T15:31:56;15.40;99.90
1379;DHT22;683;48.738;9.226;2023-05-07T15:34:24;15.60;99.90
1379;DHT22;683;48.738;9.226;2023-05-07T15:36:52;15.70;99.90
1379;DHT22;683;48.738;9.226;2023-05-07T15:39:20;15.80;99.90
1379;DHT22;683;48.738;9.226;2023-05-07T15:41:49;15.90;99.90
1379;DHT22;683;48.738;9.226;2023-05-07T15:44:16;16.00;99.90
1379;DHT22;683;48.738;9.226;2023-05-07T15:46:44;16.20;99.90
1379;DHT22;683;48.738;9.226;2023-05-07T15:49:12;16.20;99.90
1379;DHT22;683;48.738;9.226;2023-05-07T15:51:40;16.10;99.90
1379;DHT22;683;48.738;9.226;2023-05-07T15:54:08;15.90;99.90
1379;DHT22;683;48.738;9.226;2023-05-07T15:56:35;15.90;99.90
1379;DHT22;683;48.738;9.226;2023-05-07T15:59:04;15.80;99.90
1379;DHT22;683;48.738;9.226;2023-05-07T16:01:32;15.80;99.90
1379;DHT22;683;48.738;9.226;2023-05-07T16:04:00;15.80;99.90
1379;DHT22;683;48.738;9.226;2023-05-07T16:06:28;15.90;99.90
1379;DHT22;683;48.738;9.226;2023-05-07T16:08:56;15.90;99.90
1379;DHT22;683;48.738;9.226;2023-05-07T16:11:24;15.80;99.90
1379;DHT22;683;48.738;9.226;2023-05-07T16:13:52;15.90;99.90
1379;DHT22;683;48.738;9.226;2023-05-07T16:16:21;15.80;99.90
1379;DHT22;683;48.738;9.226;2023-05-07T16:18:51;15.80;99.90
1379;DHT22;683;48.738;9.226;2023-05-07T16:21:19;15.70;99.90
1379;DHT22;683;48.738;9.226;2023-05-07T16:23:47;15.70;99.90
1379;DHT22;683;48.738;9.226;2023-05-07T16:26:15;15.70;99.90
1379;DHT22;683;48.738;9.226;2023-05-07T16:28:43;15.60;99.90
1379;DHT22;683;48.738;9.226;2023-05-07T16:31:11;15.60;99.90
1379;DHT22;683;48.738;9.226;2023-05-07T16:33:40;15.60;99.90